N4096Q KHSV-KRDU
Flight info
| Callsign | N4096Q |
|---|---|
| Flight time | N/A |
| Altitude | 31000 |
| Route | GQO BUZZY BUZZY1 |
| Aircraft | SF50/L-BDGRSWY/LB2U2 |
Departure
| Time | 2026-05-08 02:28 |
|---|---|
| Airport | Huntsville International Airport (KHSV) |
Arrival
| Time | N/A |
|---|---|
| Airport | Raleigh-Durham International Airport (KRDU) |
| Time | Latitude | Longitude | Altitude | Speed | Heading |
|---|---|---|---|---|---|
| 2026-05-08 02:25 | 34.61827 | -86.78161 | 643 ft | 0 kts | 272° |
| 2026-05-08 02:27 | 34.61830 | -86.78256 | 645 ft | 17 kts | 270° |
| 2026-05-08 02:27 | 34.61859 | -86.78278 | 645 ft | 22 kts | 359° |
| 2026-05-08 02:27 | 34.62305 | -86.78270 | 656 ft | 100 kts | 360° |
| 2026-05-08 02:28 | 34.63084 | -86.78250 | 1157 ft | 117 kts | 1° |
| 2026-05-08 02:28 | 34.63938 | -86.78230 | 1722 ft | 131 kts | 359° |
| 2026-05-08 02:28 | 34.64915 | -86.78293 | 2075 ft | 148 kts | 356° |
| 2026-05-08 02:28 | 34.65895 | -86.78366 | 2704 ft | 130 kts | 356° |
| 2026-05-08 02:29 | 34.66764 | -86.78428 | 3286 ft | 125 kts | 356° |
| 2026-05-08 02:29 | 34.67649 | -86.78483 | 3740 ft | 127 kts | 356° |
| 2026-05-08 02:29 | 34.68545 | -86.78535 | 4232 ft | 132 kts | 356° |
| 2026-05-08 02:29 | 34.69456 | -86.78585 | 4944 ft | 136 kts | 356° |
| 2026-05-08 02:30 | 34.70541 | -86.78650 | 5021 ft | 173 kts | 356° |
| 2026-05-08 02:30 | 34.71763 | -86.78721 | 5010 ft | 178 kts | 356° |
| 2026-05-08 02:30 | 34.73015 | -86.78799 | 5008 ft | 182 kts | 356° |
| 2026-05-08 02:30 | 34.74250 | -86.78871 | 5263 ft | 170 kts | 357° |
| 2026-05-08 02:31 | 34.75318 | -86.78335 | 5437 ft | 171 kts | 50° |
| 2026-05-08 02:31 | 34.75730 | -86.77034 | 5808 ft | 177 kts | 78° |
| 2026-05-08 02:31 | 34.75838 | -86.75478 | 6398 ft | 187 kts | 84° |
| 2026-05-08 02:31 | 34.75996 | -86.73884 | 6987 ft | 192 kts | 78° |
| 2026-05-08 02:32 | 34.76222 | -86.72264 | 7580 ft | 197 kts | 78° |
| 2026-05-08 02:32 | 34.76447 | -86.70594 | 8170 ft | 202 kts | 78° |
| 2026-05-08 02:32 | 34.76672 | -86.68912 | 8745 ft | 207 kts | 77° |
| 2026-05-08 02:32 | 34.76903 | -86.67164 | 9327 ft | 212 kts | 77° |
| 2026-05-08 02:33 | 34.77142 | -86.65378 | 9914 ft | 216 kts | 77° |
| 2026-05-08 02:33 | 34.77385 | -86.63553 | 10427 ft | 221 kts | 77° |
| 2026-05-08 02:33 | 34.77615 | -86.61825 | 10908 ft | 225 kts | 76° |
| 2026-05-08 02:33 | 34.77829 | -86.60215 | 11334 ft | 228 kts | 76° |
| 2026-05-08 02:34 | 34.78039 | -86.58632 | 11747 ft | 232 kts | 76° |
| 2026-05-08 02:34 | 34.78256 | -86.56998 | 12161 ft | 236 kts | 76° |
| 2026-05-08 02:34 | 34.78515 | -86.55040 | 12674 ft | 239 kts | 76° |
| 2026-05-08 02:34 | 34.78779 | -86.53023 | 13157 ft | 244 kts | 76° |
| 2026-05-08 02:35 | 34.79049 | -86.50971 | 13638 ft | 247 kts | 76° |
| 2026-05-08 02:35 | 34.79324 | -86.48885 | 14085 ft | 251 kts | 76° |
| 2026-05-08 02:35 | 34.79601 | -86.46776 | 14506 ft | 254 kts | 76° |
| 2026-05-08 02:35 | 34.79881 | -86.44633 | 14930 ft | 258 kts | 76° |
| 2026-05-08 02:36 | 34.80166 | -86.42465 | 15350 ft | 261 kts | 76° |
| 2026-05-08 02:36 | 34.80454 | -86.40268 | 15756 ft | 265 kts | 76° |
| 2026-05-08 02:36 | 34.80745 | -86.38040 | 16169 ft | 268 kts | 76° |
| 2026-05-08 02:36 | 34.81041 | -86.35785 | 16572 ft | 271 kts | 77° |
| 2026-05-08 02:37 | 34.81339 | -86.33505 | 16982 ft | 275 kts | 77° |
| 2026-05-08 02:37 | 34.81641 | -86.31193 | 17383 ft | 278 kts | 77° |
| 2026-05-08 02:37 | 34.81939 | -86.28885 | 17760 ft | 281 kts | 77° |
| 2026-05-08 02:37 | 34.82245 | -86.26514 | 18047 ft | 286 kts | 77° |
| 2026-05-08 02:38 | 34.82554 | -86.24120 | 18401 ft | 286 kts | 77° |
| 2026-05-08 02:38 | 34.82865 | -86.21712 | 18748 ft | 288 kts | 77° |
| 2026-05-08 02:38 | 34.83180 | -86.19295 | 19087 ft | 290 kts | 78° |
| 2026-05-08 02:38 | 34.83494 | -86.16859 | 19408 ft | 292 kts | 77° |
| 2026-05-08 02:39 | 34.83809 | -86.14401 | 19724 ft | 295 kts | 78° |
| 2026-05-08 02:39 | 34.84131 | -86.11929 | 20020 ft | 296 kts | 77° |
| 2026-05-08 02:39 | 34.84444 | -86.09477 | 20340 ft | 298 kts | 78° |
| 2026-05-08 02:39 | 34.84762 | -86.06974 | 20677 ft | 300 kts | 78° |
| 2026-05-08 02:40 | 34.85084 | -86.04451 | 20974 ft | 302 kts | 78° |
| 2026-05-08 02:40 | 34.85408 | -86.01923 | 21320 ft | 302 kts | 78° |
| 2026-05-08 02:40 | 34.85731 | -85.99393 | 21664 ft | 303 kts | 78° |
| 2026-05-08 02:40 | 34.86051 | -85.96857 | 22011 ft | 303 kts | 78° |
| 2026-05-08 02:41 | 34.86373 | -85.94319 | 22398 ft | 303 kts | 78° |
| 2026-05-08 02:41 | 34.86697 | -85.91779 | 22751 ft | 304 kts | 78° |
| 2026-05-08 02:41 | 34.87018 | -85.89232 | 23038 ft | 307 kts | 78° |
| 2026-05-08 02:41 | 34.87351 | -85.86598 | 23043 ft | 320 kts | 79° |
| 2026-05-08 02:42 | 34.87695 | -85.83871 | 23046 ft | 330 kts | 79° |
| 2026-05-08 02:42 | 34.88044 | -85.81091 | 23050 ft | 335 kts | 79° |
| 2026-05-08 02:42 | 34.88397 | -85.78290 | 23055 ft | 341 kts | 79° |
| 2026-05-08 02:42 | 34.88758 | -85.75415 | 23055 ft | 346 kts | 79° |
| 2026-05-08 02:43 | 34.89108 | -85.72611 | 23050 ft | 349 kts | 79° |
| 2026-05-08 02:43 | 34.89476 | -85.69660 | 23049 ft | 353 kts | 79° |
| 2026-05-08 02:43 | 34.89842 | -85.66720 | 23156 ft | 350 kts | 79° |
| 2026-05-08 02:43 | 34.90221 | -85.63698 | 22967 ft | 361 kts | 79° |
| 2026-05-08 02:44 | 34.90533 | -85.61071 | 24424 ft | 240 kts | 78° |
| 2026-05-08 02:44 | 34.90611 | -85.59920 | 24224 ft | 43 kts | 49° |